createdAt,value
2017-12-05T00:00:32.363Z,92.66
2017-12-05T00:01:32.347Z,92.66
2017-12-05T00:02:32.328Z,93.23
2017-12-05T00:03:32.312Z,92.94
2017-12-05T00:04:32.299Z,93.61
2017-12-05T00:05:32.281Z,93.23
2017-12-05T00:06:32.268Z,92.94
2017-12-05T00:07:32.250Z,92.38
2017-12-05T00:08:32.229Z,92.38
2017-12-05T00:09:32.213Z,92.47
2017-12-05T00:10:32.195Z,92.19
2017-12-05T00:11:32.179Z,92.76
2017-12-05T00:12:32.166Z,92.85
2017-12-05T00:13:32.146Z,93.70
2017-12-05T00:14:32.130Z,93.23
2017-12-05T00:15:32.118Z,93.51
2017-12-05T00:16:32.096Z,93.51
2017-12-05T00:17:32.084Z,93.89
2017-12-05T00:18:32.061Z,93.04
2017-12-05T00:19:32.046Z,92.76
2017-12-05T00:20:32.029Z,92.57
2017-12-05T00:21:32.015Z,92.94
2017-12-05T00:22:32.000Z,92.85
2017-12-05T00:23:31.980Z,92.94
2017-12-05T00:24:31.963Z,93.13
2017-12-05T00:25:31.945Z,93.70
2017-12-05T00:26:31.930Z,93.32
2017-12-05T00:27:31.921Z,93.61
2017-12-05T00:28:31.909Z,93.80
2017-12-05T00:29:31.879Z,93.51
2017-12-05T00:30:31.866Z,94.18
2017-12-05T00:31:31.851Z,94.46
2017-12-05T00:32:31.829Z,94.27
2017-12-05T00:33:31.814Z,93.99
2017-12-05T00:34:31.795Z,94.27
2017-12-05T00:35:31.779Z,94.37
2017-12-05T00:36:31.762Z,94.27
2017-12-05T00:37:31.747Z,94.08
2017-12-05T00:38:31.729Z,93.61
2017-12-05T00:39:31.722Z,93.61
2017-12-05T00:40:31.698Z,93.99
2017-12-05T00:41:31.680Z,93.80
2017-12-05T00:42:31.668Z,94.08
2017-12-05T00:43:31.646Z,93.89
2017-12-05T00:44:31.636Z,93.99
2017-12-05T00:45:31.612Z,94.08
2017-12-05T00:46:31.597Z,93.80
2017-12-05T00:47:31.587Z,94.46
2017-12-05T00:48:31.570Z,94.18
2017-12-05T00:49:31.546Z,94.65
2017-12-05T00:50:31.532Z,94.18
2017-12-05T00:51:31.515Z,94.18
2017-12-05T00:52:31.496Z,94.46
2017-12-05T00:53:31.481Z,94.18
2017-12-05T00:54:31.468Z,94.84
2017-12-05T00:55:31.447Z,94.27
2017-12-05T00:56:31.435Z,93.89
2017-12-05T00:57:31.413Z,94.08
2017-12-05T00:58:31.401Z,93.99
2017-12-05T00:59:31.384Z,93.99
2017-12-05T01:00:31.364Z,93.61
2017-12-05T01:01:31.354Z,93.51
2017-12-05T01:02:31.329Z,93.42
2017-12-05T01:03:31.314Z,93.80
2017-12-05T01:04:31.307Z,93.13
2017-12-05T01:05:31.279Z,93.61
2017-12-05T01:06:31.264Z,93.80
2017-12-05T01:07:31.245Z,93.80
2017-12-05T01:08:31.228Z,94.46
2017-12-05T01:09:31.213Z,94.37
2017-12-05T01:10:31.201Z,93.61
2017-12-05T01:11:31.180Z,94.56
2017-12-05T01:12:31.162Z,94.46
2017-12-05T01:13:31.150Z,93.42
2017-12-05T01:14:31.128Z,93.42
2017-12-05T01:15:31.112Z,93.13
2017-12-05T01:16:31.095Z,92.94
2017-12-05T01:17:31.084Z,93.04
2017-12-05T01:18:31.062Z,93.04
2017-12-05T01:19:31.046Z,93.70
2017-12-05T01:20:31.030Z,93.42
2017-12-05T01:21:31.022Z,93.61
2017-12-05T01:22:31.001Z,93.80
2017-12-05T01:23:30.978Z,93.61
2017-12-05T01:24:30.963Z,94.18
2017-12-05T01:25:30.947Z,94.46
2017-12-05T01:26:30.929Z,94.27
2017-12-05T01:27:30.912Z,95.41
2017-12-05T01:28:30.901Z,94.27
2017-12-05T01:29:30.884Z,94.37
2017-12-05T01:30:30.864Z,94.84
2017-12-05T01:31:30.845Z,94.46
2017-12-05T01:32:30.832Z,94.27
2017-12-05T01:33:30.813Z,93.42
2017-12-05T01:34:30.796Z,93.80
2017-12-05T01:35:30.783Z,93.04
2017-12-05T01:36:30.768Z,93.04
2017-12-05T01:37:30.745Z,93.04
2017-12-05T01:38:30.730Z,93.61
2017-12-05T01:39:30.713Z,93.04
2017-12-05T01:40:30.708Z,93.13
2017-12-05T01:41:30.680Z,93.51
2017-12-05T01:42:30.665Z,94.56
2017-12-05T01:43:30.644Z,93.51
2017-12-05T01:44:30.636Z,94.27
2017-12-05T01:45:30.613Z,93.61
2017-12-05T01:46:30.600Z,92.94
2017-12-05T01:47:30.578Z,92.94
2017-12-05T01:48:30.571Z,92.85
2017-12-05T01:49:30.549Z,93.04
2017-12-05T01:50:30.530Z,93.89
2017-12-05T01:51:30.518Z,94.37
2017-12-05T01:52:30.496Z,94.84
2017-12-05T01:53:30.480Z,94.65
2017-12-05T01:54:30.464Z,94.74
2017-12-05T01:55:30.445Z,94.84
2017-12-05T01:56:30.429Z,94.56
2017-12-05T01:57:30.415Z,94.65
2017-12-05T01:58:30.394Z,94.93
2017-12-05T01:59:30.387Z,94.84
2017-12-05T02:00:30.363Z,94.46
2017-12-05T02:01:30.347Z,94.37
2017-12-05T02:02:30.340Z,94.46
2017-12-05T02:03:30.316Z,94.46
2017-12-05T02:04:30.301Z,94.27
2017-12-05T02:05:30.285Z,94.18
2017-12-05T02:06:30.267Z,94.84
2017-12-05T02:07:30.244Z,94.74
2017-12-05T02:08:30.228Z,95.03
2017-12-05T02:09:30.213Z,94.74
2017-12-05T02:10:30.197Z,94.74
2017-12-05T02:11:30.179Z,95.12
2017-12-05T02:12:30.171Z,95.31
2017-12-05T02:13:30.145Z,95.31
2017-12-05T02:14:30.128Z,95.31
2017-12-05T02:15:30.116Z,95.03
2017-12-05T02:16:30.098Z,95.41
2017-12-05T02:17:30.085Z,95.69
2017-12-05T02:18:30.066Z,95.69
2017-12-05T02:19:30.045Z,97.21
2017-12-05T02:20:30.029Z,96.07
2017-12-05T02:21:30.015Z,95.31
2017-12-05T02:22:29.994Z,95.03
2017-12-05T02:23:29.978Z,95.03
2017-12-05T02:24:29.963Z,95.60
2017-12-05T02:25:29.952Z,96.17
2017-12-05T02:26:29.927Z,95.98
2017-12-05T02:27:29.911Z,95.79
2017-12-05T02:28:29.894Z,95.22
2017-12-05T02:29:29.878Z,95.79
2017-12-05T02:30:29.867Z,95.88
2017-12-05T02:31:29.843Z,95.69
2017-12-05T02:32:29.831Z,96.07
2017-12-05T02:33:29.810Z,95.60
2017-12-05T02:34:29.800Z,95.69
2017-12-05T02:35:29.776Z,95.12
2017-12-05T02:36:29.764Z,95.03
2017-12-05T02:37:29.746Z,95.12
2017-12-05T02:38:29.728Z,94.93
2017-12-05T02:39:29.709Z,95.41
2017-12-05T02:40:29.694Z,95.03
2017-12-05T02:41:29.682Z,95.22
2017-12-05T02:42:29.662Z,95.41
2017-12-05T02:43:29.644Z,95.41
2017-12-05T02:44:29.627Z,95.41
2017-12-05T02:45:29.610Z,95.50
2017-12-05T02:46:29.593Z,95.22
2017-12-05T02:47:29.576Z,95.12
2017-12-05T02:48:29.560Z,95.50
2017-12-05T02:49:29.542Z,95.22
2017-12-05T02:50:29.526Z,94.65
2017-12-05T02:51:29.509Z,94.93
2017-12-05T02:52:29.495Z,94.84
2017-12-05T02:53:29.477Z,95.22
2017-12-05T02:54:29.458Z,95.03
2017-12-05T02:55:30.294Z,95.03
2017-12-05T02:56:29.427Z,95.79
2017-12-05T02:57:29.409Z,95.60
2017-12-05T02:58:29.391Z,95.41
2017-12-05T02:59:29.376Z,95.60
2017-12-05T03:00:29.359Z,95.98
2017-12-05T03:01:29.351Z,95.88
2017-12-05T03:02:29.326Z,95.50
2017-12-05T03:03:29.310Z,95.31
2017-12-05T03:04:29.294Z,95.69
2017-12-05T03:05:29.281Z,95.69
2017-12-05T03:06:29.258Z,95.79
2017-12-05T03:07:29.243Z,95.41
2017-12-05T03:08:29.225Z,95.41
2017-12-05T03:09:29.212Z,95.98
2017-12-05T03:10:29.191Z,95.50
2017-12-05T03:11:29.177Z,96.07
2017-12-05T03:12:29.159Z,96.26
2017-12-05T03:13:29.148Z,95.69
2017-12-05T03:14:29.129Z,96.07
2017-12-05T03:15:29.114Z,95.69
2017-12-05T03:16:29.092Z,95.88
2017-12-05T03:17:29.077Z,96.07
2017-12-05T03:18:29.058Z,95.69
2017-12-05T03:19:29.046Z,95.50
2017-12-05T03:20:29.026Z,95.60
2017-12-05T03:21:29.010Z,95.60
2017-12-05T03:22:28.993Z,95.98
2017-12-05T03:23:28.974Z,95.79
2017-12-05T03:24:28.958Z,95.79
2017-12-05T03:25:28.946Z,96.36
2017-12-05T03:26:28.934Z,96.36
2017-12-05T03:27:28.909Z,95.88
2017-12-05T03:28:28.898Z,96.26
2017-12-05T03:29:28.885Z,96.17
2017-12-05T03:30:28.859Z,96.17
2017-12-05T03:31:28.840Z,96.17
2017-12-05T03:32:28.825Z,96.26
2017-12-05T03:33:28.808Z,96.17
2017-12-05T03:34:28.791Z,95.79
2017-12-05T03:35:28.774Z,96.26
2017-12-05T03:36:28.760Z,96.17
2017-12-05T03:37:28.742Z,96.17
2017-12-05T03:38:28.722Z,95.88
2017-12-05T03:39:28.706Z,96.07
2017-12-05T03:40:28.696Z,96.26
2017-12-05T03:41:28.673Z,96.17
2017-12-05T03:42:28.663Z,97.02
2017-12-05T03:43:28.640Z,97.11
2017-12-05T03:44:28.623Z,97.02
2017-12-05T03:45:28.607Z,97.21
2017-12-05T03:46:28.590Z,96.26
2017-12-05T03:47:28.573Z,96.17
2017-12-05T03:48:28.564Z,96.26
2017-12-05T03:49:28.541Z,95.88
2017-12-05T03:50:28.529Z,95.79
2017-12-05T03:51:28.522Z,96.17
2017-12-05T03:52:28.489Z,95.50
2017-12-05T03:53:28.476Z,95.22
2017-12-05T03:54:28.457Z,95.12
2017-12-05T03:55:28.443Z,95.50
2017-12-05T03:56:28.429Z,95.12
2017-12-05T03:57:28.408Z,94.74
2017-12-05T03:58:28.396Z,94.74
2017-12-05T03:59:28.376Z,95.03
2017-12-05T04:00:28.359Z,94.84
2017-12-05T04:01:28.341Z,94.74
2017-12-05T04:02:28.325Z,94.08
2017-12-05T04:03:28.314Z,94.18
2017-12-05T04:04:28.291Z,94.84
2017-12-05T04:05:28.275Z,94.74
2017-12-05T04:06:28.258Z,94.93
2017-12-05T04:07:28.246Z,95.31
2017-12-05T04:08:28.225Z,95.12
2017-12-05T04:09:28.211Z,95.41
2017-12-05T04:10:28.191Z,94.84
2017-12-05T04:11:28.176Z,95.12
2017-12-05T04:12:28.161Z,95.31
2017-12-05T04:13:28.149Z,95.12
2017-12-05T04:14:28.131Z,95.41
2017-12-05T04:15:28.114Z,95.22
2017-12-05T04:16:28.099Z,95.50
2017-12-05T04:17:28.081Z,95.60
2017-12-05T04:18:28.058Z,95.31
2017-12-05T04:19:28.043Z,95.79
2017-12-05T04:20:28.028Z,95.60
2017-12-05T04:21:28.010Z,95.69
2017-12-05T04:22:27.993Z,95.88
2017-12-05T04:23:27.976Z,95.98
2017-12-05T04:24:27.966Z,95.79
2017-12-05T04:25:27.945Z,95.79
2017-12-05T04:26:27.928Z,96.26
2017-12-05T04:27:27.910Z,96.26
2017-12-05T04:28:27.897Z,96.26
2017-12-05T04:29:27.876Z,96.17
2017-12-05T04:30:27.866Z,96.31
2017-12-05T04:31:27.841Z,96.17
2017-12-05T04:32:27.826Z,96.36
2017-12-05T04:33:27.817Z,95.88
2017-12-05T04:34:27.792Z,95.83
2017-12-05T04:35:27.775Z,96.17
2017-12-05T04:36:27.759Z,96.45
2017-12-05T04:37:27.751Z,96.36
2017-12-05T04:38:27.725Z,96.17
2017-12-05T04:39:27.709Z,96.17
2017-12-05T04:40:27.698Z,96.07
2017-12-05T04:41:27.680Z,96.40
2017-12-05T04:42:27.664Z,96.36
2017-12-05T04:43:27.644Z,96.78
2017-12-05T04:44:27.627Z,96.83
2017-12-05T04:45:27.610Z,96.92
2017-12-05T04:46:27.593Z,97.02
2017-12-05T04:47:27.575Z,96.73
2017-12-05T04:48:27.561Z,96.36
2017-12-05T04:49:27.543Z,96.36
2017-12-05T04:50:27.526Z,95.74
2017-12-05T04:51:27.556Z,96.12
2017-12-05T04:52:27.493Z,96.02
2017-12-05T04:53:27.475Z,96.21
2017-12-05T04:54:27.457Z,96.12
2017-12-05T04:55:27.443Z,96.12
2017-12-05T04:56:27.425Z,96.21
2017-12-05T04:57:27.408Z,96.31
2017-12-05T04:58:27.391Z,96.02
2017-12-05T04:59:27.374Z,95.83
2017-12-05T05:00:27.358Z,96.12
2017-12-05T05:01:27.342Z,96.78
2017-12-05T05:02:27.327Z,96.69
2017-12-05T05:03:27.315Z,97.16
2017-12-05T05:04:27.296Z,96.97
2017-12-05T05:05:27.276Z,97.54
2017-12-05T05:06:27.257Z,97.54
2017-12-05T05:07:27.238Z,96.97
2017-12-05T05:08:27.229Z,97.44
2017-12-05T05:09:27.205Z,97.78
2017-12-05T05:10:27.193Z,97.73
2017-12-05T05:11:27.171Z,97.87
2017-12-05T05:12:27.154Z,97.16
2017-12-05T05:13:27.144Z,96.92
2017-12-05T05:14:27.120Z,96.50
2017-12-05T05:15:27.104Z,95.83
2017-12-05T05:16:27.089Z,97.02
2017-12-05T05:17:27.123Z,97.06
2017-12-05T05:18:27.057Z,96.88
2017-12-05T05:19:27.038Z,97.68
2017-12-05T05:20:27.020Z,97.54
2017-12-05T05:21:27.002Z,96.12
2017-12-05T05:22:26.983Z,96.02
2017-12-05T05:23:26.966Z,96.02
2017-12-05T05:24:26.951Z,96.40
2017-12-05T05:25:26.939Z,96.31
2017-12-05T05:26:26.916Z,96.88
2017-12-05T05:27:26.897Z,96.97
2017-12-05T05:28:26.882Z,97.06
2017-12-05T05:29:26.871Z,97.54
2017-12-05T05:30:26.845Z,97.63
2017-12-05T05:31:26.829Z,98.68
2017-12-05T05:32:26.813Z,98.30
2017-12-05T05:33:26.801Z,97.82
2017-12-05T05:34:26.782Z,97.63
2017-12-05T05:35:26.759Z,97.35
2017-12-05T05:36:26.742Z,97.73
2017-12-05T05:37:26.725Z,96.97
2017-12-05T05:38:26.712Z,97.63
2017-12-05T05:39:26.690Z,98.39
2017-12-05T05:40:26.678Z,97.63
2017-12-05T05:41:26.655Z,97.63
2017-12-05T05:42:26.642Z,97.63
2017-12-05T05:43:26.623Z,97.68
2017-12-05T05:44:26.604Z,98.15
2017-12-05T05:45:26.596Z,97.49
2017-12-05T05:46:26.568Z,97.77
2017-12-05T05:47:26.553Z,97.58
2017-12-05T05:48:26.542Z,98.15
2017-12-05T05:49:26.521Z,98.91
2017-12-05T05:50:26.504Z,98.72
2017-12-05T05:51:26.480Z,98.82
2017-12-05T05:52:26.462Z,98.82
2017-12-05T05:53:26.447Z,98.91
2017-12-05T05:54:26.428Z,99.10
2017-12-05T05:55:26.409Z,99.38
2017-12-05T05:56:26.401Z,98.34
2017-12-05T05:57:26.376Z,98.34
2017-12-05T05:58:26.360Z,98.25
2017-12-05T05:59:26.342Z,99.01
2017-12-05T06:00:26.323Z,98.63
2017-12-05T06:01:26.310Z,98.34
2017-12-05T06:02:26.292Z,98.34
2017-12-05T06:03:26.274Z,98.82
2017-12-05T06:04:26.252Z,98.82
2017-12-05T06:05:26.233Z,98.44
2017-12-05T06:06:26.220Z,98.06
2017-12-05T06:07:26.197Z,99.10
2017-12-05T06:08:26.185Z,98.44
2017-12-05T06:09:26.163Z,97.58
2017-12-05T06:10:26.144Z,97.39
2017-12-05T06:11:26.126Z,97.77
2017-12-05T06:12:26.111Z,97.16
2017-12-05T06:13:26.097Z,97.06
2017-12-05T06:14:26.072Z,96.73
2017-12-05T06:15:26.057Z,96.16
2017-12-05T06:16:26.043Z,96.64
2017-12-05T06:17:26.021Z,96.92
2017-12-05T06:18:26.007Z,97.02
2017-12-05T06:19:25.989Z,97.68
2017-12-05T06:20:25.968Z,96.92
2017-12-05T06:21:25.948Z,97.63
2017-12-05T06:22:25.938Z,97.92
2017-12-05T06:23:25.913Z,96.59
2017-12-05T06:24:25.896Z,97.02
2017-12-05T06:25:25.878Z,97.73
2017-12-05T06:26:25.859Z,97.16
2017-12-05T06:27:25.846Z,96.69
2017-12-05T06:28:25.827Z,96.21
2017-12-05T06:29:25.809Z,96.02
2017-12-05T06:30:25.798Z,96.12
2017-12-05T06:31:25.775Z,96.12
2017-12-05T06:32:25.762Z,96.78
2017-12-05T06:33:25.741Z,96.40
2017-12-05T06:34:25.725Z,95.93
2017-12-05T06:35:25.705Z,96.02
2017-12-05T06:36:25.685Z,97.63
2017-12-05T06:37:25.669Z,96.78
2017-12-05T06:38:25.655Z,96.02
2017-12-05T06:39:25.632Z,95.64
2017-12-05T06:40:25.615Z,95.64
2017-12-05T06:41:25.597Z,95.45
2017-12-05T06:42:25.585Z,95.83
2017-12-05T06:43:25.568Z,96.02
2017-12-05T06:44:25.547Z,96.12
2017-12-05T06:45:25.527Z,95.83
2017-12-05T06:46:25.511Z,95.74
2017-12-05T06:47:25.493Z,95.74
2017-12-05T06:48:25.477Z,95.83
2017-12-05T06:49:25.458Z,95.93
2017-12-05T06:50:25.441Z,95.74
2017-12-05T06:51:25.427Z,95.64
2017-12-05T06:52:25.412Z,95.93
2017-12-05T06:53:25.394Z,96.12
2017-12-05T06:54:25.371Z,96.02
2017-12-05T06:55:25.354Z,96.31
2017-12-05T06:56:25.338Z,96.31
2017-12-05T06:57:25.319Z,96.02
2017-12-05T06:58:25.309Z,96.21
2017-12-05T06:59:25.286Z,96.21
2017-12-05T07:00:25.270Z,96.40
2017-12-05T07:01:25.251Z,95.93
2017-12-05T07:02:25.235Z,95.74
2017-12-05T07:03:25.220Z,96.21
2017-12-05T07:04:25.198Z,95.64
2017-12-05T07:05:25.188Z,95.74
2017-12-05T07:06:25.166Z,96.21
2017-12-05T07:07:25.152Z,96.31
2017-12-05T07:08:25.128Z,96.40
2017-12-05T07:09:25.117Z,96.31
2017-12-05T07:10:25.099Z,96.78
2017-12-05T07:11:25.080Z,96.88
2017-12-05T07:12:25.062Z,95.55
2017-12-05T07:13:25.046Z,95.45
2017-12-05T07:14:25.034Z,95.50
2017-12-05T07:15:25.011Z,95.07
2017-12-05T07:16:24.996Z,95.07
2017-12-05T07:17:24.976Z,94.65
2017-12-05T07:18:24.958Z,94.56
2017-12-05T07:19:24.942Z,94.65
2017-12-05T07:20:24.929Z,95.07
2017-12-05T07:21:24.908Z,95.07
2017-12-05T07:22:24.894Z,94.79
2017-12-05T07:23:24.870Z,95.36
2017-12-05T07:24:24.860Z,94.98
2017-12-05T07:25:24.836Z,95.26
2017-12-05T07:26:24.820Z,95.45
2017-12-05T07:27:24.804Z,94.60
2017-12-05T07:28:24.788Z,95.22
2017-12-05T07:29:24.776Z,95.41
2017-12-05T07:30:24.757Z,94.79
2017-12-05T07:31:24.734Z,95.03
2017-12-05T07:32:24.718Z,94.93
2017-12-05T07:33:24.707Z,94.65
2017-12-05T07:34:24.685Z,94.74
2017-12-05T07:35:24.672Z,94.70
2017-12-05T07:36:24.651Z,94.70
2017-12-05T07:37:24.636Z,94.51
2017-12-05T07:38:24.615Z,94.51
2017-12-05T07:39:24.598Z,94.79
2017-12-05T07:40:24.583Z,95.07
2017-12-05T07:41:24.576Z,95.50
2017-12-05T07:42:24.550Z,95.26
2017-12-05T07:43:24.539Z,95.31
2017-12-05T07:44:24.515Z,95.12
2017-12-05T07:45:24.500Z,95.12
2017-12-05T07:46:24.480Z,95.07
2017-12-05T07:47:24.471Z,95.41
2017-12-05T07:48:24.448Z,94.98
2017-12-05T07:49:24.433Z,95.17
2017-12-05T07:50:24.413Z,96.17
2017-12-05T07:51:24.397Z,96.07
2017-12-05T07:52:24.382Z,95.22
2017-12-05T07:53:24.372Z,95.03
2017-12-05T07:54:24.354Z,95.12
2017-12-05T07:55:24.332Z,94.93
2017-12-05T07:56:24.314Z,94.56
2017-12-05T07:57:24.297Z,94.18
2017-12-05T07:58:24.281Z,94.18
2017-12-05T07:59:24.262Z,94.46
2017-12-05T08:00:24.245Z,93.80
2017-12-05T08:01:24.234Z,93.42
2017-12-05T08:02:24.213Z,93.42
2017-12-05T08:03:24.194Z,93.70
2017-12-05T08:04:24.178Z,94.27
2017-12-05T08:05:24.163Z,94.27
2017-12-05T08:06:24.149Z,94.56
2017-12-05T08:07:24.133Z,93.89
2017-12-05T08:08:24.122Z,93.32
2017-12-05T08:09:24.100Z,93.70
2017-12-05T08:10:24.075Z,93.61
2017-12-05T08:11:24.064Z,94.37
2017-12-05T08:12:24.043Z,93.80
2017-12-05T08:13:24.026Z,93.61
2017-12-05T08:14:24.009Z,93.61
2017-12-05T08:15:23.994Z,93.70
2017-12-05T08:16:23.976Z,93.13
2017-12-05T08:17:23.959Z,93.13
2017-12-05T08:18:23.942Z,93.23
2017-12-05T08:19:23.930Z,93.23
2017-12-05T08:20:23.915Z,93.70
2017-12-05T08:21:23.898Z,93.89
2017-12-05T08:22:23.877Z,94.27
2017-12-05T08:23:23.864Z,93.61
2017-12-05T08:24:23.843Z,92.94
2017-12-05T08:25:23.828Z,94.56
2017-12-05T08:26:23.808Z,94.37
2017-12-05T08:27:23.799Z,94.74
2017-12-05T08:28:23.778Z,93.80
2017-12-05T08:29:23.766Z,93.61
2017-12-05T08:30:23.746Z,93.89
2017-12-05T08:31:23.724Z,92.85
2017-12-05T08:32:23.709Z,93.42
2017-12-05T08:33:23.701Z,93.70
2017-12-05T08:34:23.680Z,93.42
2017-12-05T08:35:23.657Z,93.51
2017-12-05T08:36:23.639Z,93.70
2017-12-05T08:37:23.629Z,92.76
2017-12-05T08:38:23.615Z,93.32
2017-12-05T08:39:23.597Z,93.23
2017-12-05T08:40:23.578Z,92.94
2017-12-05T08:41:23.565Z,93.13
2017-12-05T08:42:23.544Z,93.32
2017-12-05T08:43:23.522Z,93.61
2017-12-05T08:44:23.507Z,93.51
2017-12-05T08:45:23.490Z,92.76
2017-12-05T08:46:23.471Z,93.42
2017-12-05T08:47:23.459Z,93.70
2017-12-05T08:48:23.440Z,93.61
2017-12-05T08:49:23.428Z,93.42
2017-12-05T08:50:23.406Z,93.61
2017-12-05T08:51:23.394Z,93.80
2017-12-05T08:52:23.381Z,93.70
2017-12-05T08:53:23.355Z,93.70
2017-12-05T08:54:23.345Z,94.56
2017-12-05T08:55:23.323Z,93.61
2017-12-05T08:56:23.307Z,93.32
2017-12-05T08:57:23.290Z,94.27
2017-12-05T08:58:23.272Z,94.27
2017-12-05T08:59:23.261Z,93.89
2017-12-05T09:00:23.238Z,92.09
2017-12-05T09:01:23.222Z,92.85
2017-12-05T09:02:23.211Z,93.42
2017-12-05T09:03:23.193Z,92.76
2017-12-05T09:04:23.174Z,92.94
2017-12-05T09:05:23.158Z,92.00
2017-12-05T09:06:23.139Z,93.84
2017-12-05T09:07:23.122Z,92.90
2017-12-05T09:08:23.116Z,93.37
2017-12-05T09:09:23.096Z,90.91
2017-12-05T09:10:23.071Z,90.34
2017-12-05T09:11:23.061Z,89.86
2017-12-05T09:12:23.041Z,90.91
2017-12-05T09:13:23.023Z,89.77
2017-12-05T09:14:23.006Z,90.43
2017-12-05T09:15:22.989Z,89.77
2017-12-05T09:16:22.979Z,89.77
2017-12-05T09:17:22.963Z,90.72
2017-12-05T09:18:22.940Z,90.67
2017-12-05T09:19:22.924Z,89.82
2017-12-05T09:20:22.912Z,90.95
2017-12-05T09:21:22.891Z,90.86
2017-12-05T09:22:22.876Z,91.43
2017-12-05T09:23:22.858Z,91.90
2017-12-05T09:24:22.839Z,91.90
2017-12-05T09:25:22.826Z,90.67
2017-12-05T09:26:22.811Z,91.43
2017-12-05T09:27:22.791Z,91.62
2017-12-05T09:28:22.774Z,92.94
2017-12-05T09:29:22.758Z,93.18
2017-12-05T09:30:22.741Z,92.90
2017-12-05T09:31:22.727Z,90.81
2017-12-05T09:32:22.710Z,91.85
2017-12-05T09:33:22.694Z,91.85
2017-12-05T09:34:22.676Z,89.86
2017-12-05T09:35:22.662Z,88.82
2017-12-05T09:36:22.644Z,89.29
2017-12-05T09:37:22.630Z,90.24
2017-12-05T09:38:22.613Z,91.38
2017-12-05T09:39:22.596Z,91.09
2017-12-05T09:40:22.582Z,89.29
2017-12-05T09:41:22.565Z,90.43
2017-12-05T09:42:22.588Z,88.92
2017-12-05T09:43:22.531Z,89.20
2017-12-05T09:44:22.521Z,90.53
2017-12-05T09:45:22.510Z,89.20
2017-12-05T09:46:22.481Z,88.16
2017-12-05T09:47:22.474Z,88.25
2017-12-05T09:48:22.456Z,89.39
2017-12-05T09:49:22.435Z,89.11
2017-12-05T09:50:22.424Z,91.09
2017-12-05T09:51:22.407Z,91.19
2017-12-05T09:52:22.428Z,92.33
2017-12-05T09:53:22.409Z,89.96
2017-12-05T09:54:22.359Z,89.72
2017-12-05T09:55:22.342Z,90.38
2017-12-05T09:56:22.330Z,90.29
2017-12-05T09:57:22.307Z,88.96
2017-12-05T09:58:22.294Z,88.20
2017-12-05T09:59:22.274Z,88.01
2017-12-05T10:00:22.262Z,87.73
2017-12-05T10:01:22.243Z,88.20
2017-12-05T10:02:22.283Z,87.73
2017-12-05T10:03:22.253Z,86.59
2017-12-05T10:04:22.252Z,86.68
2017-12-05T10:05:22.222Z,86.83
2017-12-05T10:06:22.208Z,87.12
2017-12-05T10:07:22.201Z,87.35
2017-12-05T10:08:22.182Z,87.12
2017-12-05T10:09:22.166Z,87.87
2017-12-05T10:10:22.096Z,87.21
2017-12-05T10:11:22.087Z,87.97
2017-12-05T10:12:22.064Z,88.35
2017-12-05T10:13:22.054Z,88.35
2017-12-05T10:14:22.078Z,90.15
2017-12-05T10:15:22.073Z,89.20
2017-12-05T10:16:22.051Z,88.54
2017-12-05T10:17:22.031Z,89.20
2017-12-05T10:18:21.967Z,88.25
2017-12-05T10:19:21.961Z,89.20
2017-12-05T10:20:21.941Z,89.96
2017-12-05T10:21:21.928Z,90.05
2017-12-05T10:22:21.923Z,90.15
2017-12-05T10:23:21.895Z,91.66
2017-12-05T10:24:21.881Z,88.63
2017-12-05T10:25:21.866Z,88.39
2017-12-05T10:26:21.889Z,87.63
2017-12-05T10:27:21.875Z,88.77
2017-12-05T10:28:21.859Z,87.25
2017-12-05T10:29:21.851Z,87.30
2017-12-05T10:30:21.839Z,87.87
2017-12-05T10:31:21.817Z,88.73
2017-12-05T10:32:21.794Z,87.49
2017-12-05T10:33:21.776Z,90.34
2017-12-05T10:34:21.722Z,88.06
2017-12-05T10:35:21.698Z,88.16
2017-12-05T10:36:21.682Z,88.54
2017-12-05T10:37:21.674Z,88.63
2017-12-05T10:38:21.651Z,88.54
2017-12-05T10:39:21.644Z,88.25
2017-12-05T10:40:21.628Z,88.25
2017-12-05T10:41:21.603Z,88.16
2017-12-05T10:42:21.643Z,88.63
2017-12-05T10:43:21.619Z,88.63
2017-12-05T10:44:21.601Z,88.06
2017-12-05T10:45:21.573Z,87.30
2017-12-05T10:46:21.528Z,87.40
2017-12-05T10:47:21.509Z,88.16
2017-12-05T10:48:21.499Z,88.35
2017-12-05T10:49:21.476Z,88.54
2017-12-05T10:50:21.505Z,92.23
2017-12-05T10:51:21.505Z,89.77
2017-12-05T10:52:21.477Z,88.35
2017-12-05T10:53:21.470Z,88.16
2017-12-05T10:54:21.445Z,87.77
2017-12-05T10:55:21.429Z,87.73
2017-12-05T10:56:21.465Z,87.30
2017-12-05T10:57:21.404Z,87.77
2017-12-05T10:58:21.355Z,87.54
2017-12-05T10:59:21.325Z,87.25
2017-12-05T11:00:21.318Z,87.54
2017-12-05T11:01:21.293Z,87.49
2017-12-05T11:02:21.271Z,87.68
2017-12-05T11:03:21.257Z,87.25
2017-12-05T11:04:21.242Z,88.20
2017-12-05T11:05:21.225Z,88.10
2017-12-05T11:06:21.250Z,87.73
2017-12-05T11:07:21.235Z,87.30
2017-12-05T11:08:21.226Z,87.35
2017-12-05T11:09:21.215Z,87.30
2017-12-05T11:10:21.206Z,87.30
2017-12-05T11:11:21.188Z,87.77
2017-12-05T11:12:21.177Z,87.68
2017-12-05T11:13:21.503Z,87.54
2017-12-05T11:14:21.085Z,87.68
2017-12-05T11:15:21.068Z,87.12
2017-12-05T11:16:21.052Z,88.25
2017-12-05T11:17:21.042Z,89.06
2017-12-05T11:18:21.064Z,88.20
2017-12-05T11:19:21.056Z,87.35
2017-12-05T11:20:21.048Z,87.06
2017-12-05T11:21:21.023Z,86.59
2017-12-05T11:22:20.959Z,86.40
2017-12-05T11:23:20.948Z,87.82
2017-12-05T11:24:20.931Z,86.40
2017-12-05T11:25:20.915Z,86.97
2017-12-05T11:26:20.897Z,87.06
2017-12-05T11:27:20.887Z,87.73
2017-12-05T11:28:20.865Z,87.16
2017-12-05T11:29:20.850Z,87.45
2017-12-05T11:30:20.890Z,88.01
2017-12-05T11:31:20.875Z,88.16
2017-12-05T11:32:20.848Z,88.77
2017-12-05T11:33:20.839Z,89.34
2017-12-05T11:34:20.834Z,88.73
2017-12-05T11:35:20.812Z,88.39
2017-12-05T11:36:20.803Z,88.58
2017-12-05T11:37:20.775Z,88.58
2017-12-05T11:38:20.721Z,89.34
2017-12-05T11:39:20.693Z,89.29
2017-12-05T11:40:20.680Z,89.34
2017-12-05T11:41:20.664Z,88.77
2017-12-05T11:42:20.650Z,88.20
2017-12-05T11:43:20.632Z,88.20
2017-12-05T11:44:20.616Z,89.34
2017-12-05T11:45:20.612Z,88.39
2017-12-05T11:46:20.626Z,88.58
2017-12-05T11:47:20.618Z,88.29
2017-12-05T11:48:20.606Z,88.01
2017-12-05T11:49:20.589Z,87.54
2017-12-05T11:50:20.528Z,87.25
2017-12-05T11:51:20.506Z,87.06
2017-12-05T11:52:20.503Z,86.87
2017-12-05T11:53:20.480Z,87.35
2017-12-05T11:54:20.507Z,87.35
2017-12-05T11:55:20.501Z,89.25
2017-12-05T11:56:20.486Z,88.29
2017-12-05T11:57:20.464Z,90.19
2017-12-05T11:58:20.452Z,88.48
2017-12-05T11:59:20.793Z,87.82
2017-12-05T12:00:20.413Z,86.87
2017-12-05T12:01:20.394Z,86.97
2017-12-05T12:02:20.360Z,87.54
2017-12-05T12:03:20.329Z,87.35
2017-12-05T12:04:20.316Z,87.63
2017-12-05T12:05:20.293Z,88.10
2017-12-05T12:06:20.277Z,87.35
2017-12-05T12:07:20.270Z,87.25
2017-12-05T12:08:20.276Z,87.73
2017-12-05T12:09:20.242Z,87.35
2017-12-05T12:10:20.266Z,86.40
2017-12-05T12:11:20.301Z,87.35
2017-12-05T12:12:20.234Z,87.45
2017-12-05T12:13:20.222Z,87.35
2017-12-05T12:14:20.215Z,86.40
2017-12-05T12:15:20.193Z,86.87
2017-12-05T12:16:20.172Z,86.59
2017-12-05T12:17:20.149Z,86.02
2017-12-05T12:18:20.119Z,86.59
2017-12-05T12:19:20.115Z,87.16
2017-12-05T12:20:20.094Z,86.78
2017-12-05T12:21:20.078Z,86.97
2017-12-05T12:22:20.091Z,87.63
2017-12-05T12:23:20.071Z,87.16
2017-12-05T12:24:20.052Z,87.45
2017-12-05T12:25:20.027Z,87.16
2017-12-05T12:26:19.999Z,87.54
2017-12-05T12:27:19.971Z,87.25
2017-12-05T12:28:19.963Z,87.54
2017-12-05T12:29:19.958Z,88.20
2017-12-05T12:30:19.925Z,87.45
2017-12-05T12:31:19.930Z,85.93
2017-12-05T12:32:19.916Z,86.68
2017-12-05T12:33:19.918Z,86.21
2017-12-05T12:34:19.904Z,85.55
2017-12-05T12:35:19.892Z,86.87
2017-12-05T12:36:19.864Z,86.78
2017-12-05T12:37:19.849Z,86.40
2017-12-05T12:38:19.834Z,87.16
2017-12-05T12:39:20.021Z,89.06
2017-12-05T12:40:19.810Z,89.53
2017-12-05T12:41:19.800Z,87.45
2017-12-05T12:42:19.766Z,86.87
2017-12-05T12:43:19.755Z,86.78
2017-12-05T12:44:19.737Z,86.78
2017-12-05T12:45:19.733Z,87.06
2017-12-05T12:46:19.715Z,87.35
2017-12-05T12:47:19.694Z,87.35
2017-12-05T12:48:19.666Z,87.25
2017-12-05T12:49:19.666Z,88.68
2017-12-05T12:50:19.651Z,87.35
2017-12-05T12:51:19.645Z,87.16
2017-12-05T12:52:19.630Z,87.25